sensor_id;sensor_type;location;lat;lon;timestamp;P1;durP1;ratioP1;P2;durP2;ratioP2
22007;SDS011;11168;56.976;24.168;2022-09-11T00:02:21;4.60;;;1.85;;
22007;SDS011;11168;56.976;24.168;2022-09-11T00:04:49;4.32;;;2.08;;
22007;SDS011;11168;56.976;24.168;2022-09-11T00:07:17;3.72;;;1.90;;
22007;SDS011;11168;56.976;24.168;2022-09-11T00:09:44;6.03;;;2.00;;
22007;SDS011;11168;56.976;24.168;2022-09-11T00:12:12;3.60;;;1.95;;
22007;SDS011;11168;56.976;24.168;2022-09-11T00:14:39;2.13;;;1.77;;
22007;SDS011;11168;56.976;24.168;2022-09-11T00:17:06;4.57;;;1.73;;
22007;SDS011;11168;56.976;24.168;2022-09-11T00:19:34;4.97;;;1.90;;
22007;SDS011;11168;56.976;24.168;2022-09-11T00:22:02;2.65;;;1.77;;
22007;SDS011;11168;56.976;24.168;2022-09-11T00:24:30;3.33;;;2.03;;
22007;SDS011;11168;56.976;24.168;2022-09-11T00:26:57;4.10;;;2.00;;
22007;SDS011;11168;56.976;24.168;2022-09-11T00:29:25;5.53;;;2.00;;
22007;SDS011;11168;56.976;24.168;2022-09-11T00:31:52;3.78;;;1.88;;
22007;SDS011;11168;56.976;24.168;2022-09-11T00:34:19;6.07;;;2.20;;
22007;SDS011;11168;56.976;24.168;2022-09-11T00:36:47;7.10;;;2.00;;
22007;SDS011;11168;56.976;24.168;2022-09-11T00:39:14;3.65;;;2.20;;
22007;SDS011;11168;56.976;24.168;2022-09-11T00:41:43;2.35;;;1.88;;
22007;SDS011;11168;56.976;24.168;2022-09-11T00:46:49;6.13;;;2.10;;
22007;SDS011;11168;56.976;24.168;2022-09-11T00:51:48;8.98;;;2.22;;
22007;SDS011;11168;56.976;24.168;2022-09-11T00:54:19;5.03;;;2.30;;
22007;SDS011;11168;56.976;24.168;2022-09-11T00:56:49;6.53;;;2.40;;
22007;SDS011;11168;56.976;24.168;2022-09-11T00:59:17;5.40;;;2.60;;
22007;SDS011;11168;56.976;24.168;2022-09-11T01:01:46;5.07;;;3.00;;
22007;SDS011;11168;56.976;24.168;2022-09-11T01:04:14;6.25;;;2.83;;
22007;SDS011;11168;56.976;24.168;2022-09-11T01:06:41;8.27;;;3.20;;
22007;SDS011;11168;56.976;24.168;2022-09-11T01:09:12;5.25;;;2.40;;
22007;SDS011;11168;56.976;24.168;2022-09-11T01:11:46;6.57;;;2.65;;
22007;SDS011;11168;56.976;24.168;2022-09-11T01:27:49;6.75;;;2.60;;
22007;SDS011;11168;56.976;24.168;2022-09-11T01:35:26;5.53;;;2.40;;
22007;SDS011;11168;56.976;24.168;2022-09-11T01:38:01;7.78;;;2.45;;
22007;SDS011;11168;56.976;24.168;2022-09-11T01:40:32;5.82;;;2.33;;
22007;SDS011;11168;56.976;24.168;2022-09-11T01:43:03;4.53;;;2.70;;
22007;SDS011;11168;56.976;24.168;2022-09-11T01:45:33;7.32;;;2.63;;
22007;SDS011;11168;56.976;24.168;2022-09-11T01:48:03;9.07;;;2.20;;
22007;SDS011;11168;56.976;24.168;2022-09-11T01:50:31;3.60;;;2.28;;
22007;SDS011;11168;56.976;24.168;2022-09-11T01:53:00;4.40;;;2.35;;
22007;SDS011;11168;56.976;24.168;2022-09-11T01:55:39;3.65;;;2.40;;
22007;SDS011;11168;56.976;24.168;2022-09-11T01:58:12;5.00;;;2.20;;
22007;SDS011;11168;56.976;24.168;2022-09-11T02:00:43;5.47;;;2.30;;
22007;SDS011;11168;56.976;24.168;2022-09-11T02:03:14;6.82;;;2.03;;
22007;SDS011;11168;56.976;24.168;2022-09-11T02:05:49;5.53;;;2.05;;
22007;SDS011;11168;56.976;24.168;2022-09-11T02:08:22;3.75;;;1.98;;
22007;SDS011;11168;56.976;24.168;2022-09-11T02:10:53;3.03;;;1.83;;
22007;SDS011;11168;56.976;24.168;2022-09-11T02:13:29;3.05;;;1.98;;
22007;SDS011;11168;56.976;24.168;2022-09-11T02:16:01;2.80;;;2.17;;
22007;SDS011;11168;56.976;24.168;2022-09-11T02:18:50;5.47;;;2.40;;
22007;SDS011;11168;56.976;24.168;2022-09-11T02:21:20;3.75;;;2.00;;
22007;SDS011;11168;56.976;24.168;2022-09-11T02:23:47;3.40;;;1.98;;
22007;SDS011;11168;56.976;24.168;2022-09-11T02:26:15;3.35;;;2.00;;
22007;SDS011;11168;56.976;24.168;2022-09-11T02:28:43;5.70;;;2.28;;
22007;SDS011;11168;56.976;24.168;2022-09-11T02:31:10;4.05;;;2.10;;
22007;SDS011;11168;56.976;24.168;2022-09-11T02:33:38;4.18;;;2.05;;
22007;SDS011;11168;56.976;24.168;2022-09-11T02:39:26;5.72;;;2.35;;
22007;SDS011;11168;56.976;24.168;2022-09-11T02:47:40;5.60;;;2.58;;
22007;SDS011;11168;56.976;24.168;2022-09-11T02:58:31;6.03;;;2.38;;
22007;SDS011;11168;56.976;24.168;2022-09-11T03:01:01;4.13;;;2.60;;
22007;SDS011;11168;56.976;24.168;2022-09-11T03:03:39;11.35;;;2.67;;
22007;SDS011;11168;56.976;24.168;2022-09-11T03:06:08;5.10;;;2.60;;
22007;SDS011;11168;56.976;24.168;2022-09-11T03:08:36;7.70;;;2.75;;
22007;SDS011;11168;56.976;24.168;2022-09-11T03:11:04;4.35;;;2.70;;
22007;SDS011;11168;56.976;24.168;2022-09-11T03:13:31;4.00;;;3.00;;
22007;SDS011;11168;56.976;24.168;2022-09-11T03:16:02;7.22;;;3.30;;
22007;SDS011;11168;56.976;24.168;2022-09-11T03:18:30;7.22;;;3.00;;
22007;SDS011;11168;56.976;24.168;2022-09-11T03:20:59;4.47;;;2.92;;
22007;SDS011;11168;56.976;24.168;2022-09-11T03:23:26;6.57;;;3.03;;
22007;SDS011;11168;56.976;24.168;2022-09-11T03:25:54;5.93;;;3.35;;
22007;SDS011;11168;56.976;24.168;2022-09-11T03:28:22;4.88;;;3.10;;
22007;SDS011;11168;56.976;24.168;2022-09-11T03:30:49;5.85;;;3.38;;
22007;SDS011;11168;56.976;24.168;2022-09-11T03:33:19;5.80;;;3.05;;
22007;SDS011;11168;56.976;24.168;2022-09-11T03:35:47;4.57;;;3.08;;
22007;SDS011;11168;56.976;24.168;2022-09-11T03:38:15;6.97;;;3.10;;
22007;SDS011;11168;56.976;24.168;2022-09-11T03:40:43;3.95;;;2.80;;
22007;SDS011;11168;56.976;24.168;2022-09-11T03:43:10;5.40;;;3.22;;
22007;SDS011;11168;56.976;24.168;2022-09-11T03:45:38;5.15;;;3.38;;
22007;SDS011;11168;56.976;24.168;2022-09-11T03:48:05;4.65;;;3.10;;
22007;SDS011;11168;56.976;24.168;2022-09-11T03:50:33;4.82;;;2.47;;
22007;SDS011;11168;56.976;24.168;2022-09-11T03:53:00;7.05;;;2.88;;
22007;SDS011;11168;56.976;24.168;2022-09-11T03:55:28;6.25;;;2.85;;
22007;SDS011;11168;56.976;24.168;2022-09-11T03:57:57;5.93;;;3.03;;
22007;SDS011;11168;56.976;24.168;2022-09-11T04:00:25;4.82;;;2.58;;
22007;SDS011;11168;56.976;24.168;2022-09-11T04:02:52;4.82;;;2.90;;
22007;SDS011;11168;56.976;24.168;2022-09-11T04:05:21;4.78;;;2.85;;
22007;SDS011;11168;56.976;24.168;2022-09-11T04:07:52;6.53;;;3.03;;
22007;SDS011;11168;56.976;24.168;2022-09-11T04:10:20;4.75;;;2.40;;
22007;SDS011;11168;56.976;24.168;2022-09-11T04:12:48;4.22;;;2.65;;
22007;SDS011;11168;56.976;24.168;2022-09-11T04:15:15;5.95;;;3.00;;
22007;SDS011;11168;56.976;24.168;2022-09-11T04:17:42;6.15;;;2.63;;
22007;SDS011;11168;56.976;24.168;2022-09-11T04:20:10;4.20;;;2.80;;
22007;SDS011;11168;56.976;24.168;2022-09-11T04:22:37;4.55;;;2.20;;
22007;SDS011;11168;56.976;24.168;2022-09-11T04:25:06;5.05;;;2.50;;
22007;SDS011;11168;56.976;24.168;2022-09-11T04:27:34;5.25;;;3.08;;
22007;SDS011;11168;56.976;24.168;2022-09-11T04:30:01;4.53;;;2.55;;
22007;SDS011;11168;56.976;24.168;2022-09-11T04:32:29;4.20;;;2.42;;
22007;SDS011;11168;56.976;24.168;2022-09-11T04:34:56;5.22;;;2.78;;
22007;SDS011;11168;56.976;24.168;2022-09-11T04:37:24;6.93;;;2.70;;
22007;SDS011;11168;56.976;24.168;2022-09-11T04:39:51;10.88;;;3.03;;
22007;SDS011;11168;56.976;24.168;2022-09-11T04:42:19;5.57;;;3.42;;
22007;SDS011;11168;56.976;24.168;2022-09-11T04:44:46;4.80;;;3.10;;
22007;SDS011;11168;56.976;24.168;2022-09-11T04:47:13;5.35;;;3.50;;
22007;SDS011;11168;56.976;24.168;2022-09-11T04:49:42;6.30;;;3.20;;
22007;SDS011;11168;56.976;24.168;2022-09-11T04:52:12;8.13;;;3.50;;
22007;SDS011;11168;56.976;24.168;2022-09-11T04:54:40;6.50;;;3.28;;
22007;SDS011;11168;56.976;24.168;2022-09-11T04:57:08;4.25;;;3.20;;
22007;SDS011;11168;56.976;24.168;2022-09-11T04:59:35;5.18;;;3.05;;
22007;SDS011;11168;56.976;24.168;2022-09-11T05:02:04;5.18;;;3.42;;
22007;SDS011;11168;56.976;24.168;2022-09-11T05:04:31;5.50;;;3.15;;
22007;SDS011;11168;56.976;24.168;2022-09-11T05:06:59;5.30;;;3.33;;
22007;SDS011;11168;56.976;24.168;2022-09-11T05:09:27;3.75;;;2.90;;
22007;SDS011;11168;56.976;24.168;2022-09-11T05:11:55;5.97;;;3.20;;
22007;SDS011;11168;56.976;24.168;2022-09-11T05:14:22;6.43;;;2.80;;
22007;SDS011;11168;56.976;24.168;2022-09-11T05:16:50;4.03;;;2.72;;
22007;SDS011;11168;56.976;24.168;2022-09-11T05:19:18;6.93;;;2.92;;
22007;SDS011;11168;56.976;24.168;2022-09-11T05:21:45;4.55;;;2.50;;
22007;SDS011;11168;56.976;24.168;2022-09-11T05:24:13;3.83;;;2.70;;
22007;SDS011;11168;56.976;24.168;2022-09-11T05:26:40;4.43;;;2.75;;
22007;SDS011;11168;56.976;24.168;2022-09-11T05:29:11;6.63;;;2.85;;
22007;SDS011;11168;56.976;24.168;2022-09-11T05:31:40;5.65;;;2.90;;
22007;SDS011;11168;56.976;24.168;2022-09-11T05:34:07;3.95;;;2.70;;
22007;SDS011;11168;56.976;24.168;2022-09-11T05:36:35;6.20;;;2.75;;
22007;SDS011;11168;56.976;24.168;2022-09-11T05:39:02;6.75;;;2.65;;
22007;SDS011;11168;56.976;24.168;2022-09-11T05:41:30;3.75;;;2.42;;
22007;SDS011;11168;56.976;24.168;2022-09-11T05:43:57;4.53;;;2.40;;
22007;SDS011;11168;56.976;24.168;2022-09-11T05:46:25;6.03;;;2.78;;
22007;SDS011;11168;56.976;24.168;2022-09-11T05:48:52;3.85;;;2.85;;
22007;SDS011;11168;56.976;24.168;2022-09-11T05:51:20;4.50;;;2.63;;
22007;SDS011;11168;56.976;24.168;2022-09-11T05:53:50;3.85;;;2.60;;
22007;SDS011;11168;56.976;24.168;2022-09-11T05:56:19;3.25;;;2.15;;
22007;SDS011;11168;56.976;24.168;2022-09-11T05:58:47;6.45;;;2.40;;
22007;SDS011;11168;56.976;24.168;2022-09-11T06:01:17;5.28;;;2.17;;
22007;SDS011;11168;56.976;24.168;2022-09-11T06:03:45;7.35;;;2.05;;
22007;SDS011;11168;56.976;24.168;2022-09-11T06:06:15;4.32;;;2.25;;
22007;SDS011;11168;56.976;24.168;2022-09-11T06:08:42;4.10;;;2.13;;
22007;SDS011;11168;56.976;24.168;2022-09-11T06:11:11;5.57;;;2.38;;
22007;SDS011;11168;56.976;24.168;2022-09-11T06:13:40;6.45;;;1.95;;
22007;SDS011;11168;56.976;24.168;2022-09-11T06:16:12;3.35;;;2.08;;
22007;SDS011;11168;56.976;24.168;2022-09-11T06:18:43;7.20;;;2.70;;
22007;SDS011;11168;56.976;24.168;2022-09-11T06:21:16;5.00;;;2.13;;
22007;SDS011;11168;56.976;24.168;2022-09-11T06:23:46;4.05;;;1.85;;
22007;SDS011;11168;56.976;24.168;2022-09-11T06:26:15;3.53;;;2.10;;
22007;SDS011;11168;56.976;24.168;2022-09-11T06:28:42;4.72;;;2.20;;
22007;SDS011;11168;56.976;24.168;2022-09-11T06:31:11;7.72;;;1.98;;
22007;SDS011;11168;56.976;24.168;2022-09-11T06:33:39;5.70;;;2.08;;
22007;SDS011;11168;56.976;24.168;2022-09-11T06:36:08;3.45;;;2.00;;
22007;SDS011;11168;56.976;24.168;2022-09-11T06:38:36;7.10;;;2.40;;
22007;SDS011;11168;56.976;24.168;2022-09-11T06:41:07;3.60;;;2.20;;
22007;SDS011;11168;56.976;24.168;2022-09-11T06:43:38;2.50;;;2.00;;
22007;SDS011;11168;56.976;24.168;2022-09-11T06:46:12;6.78;;;2.38;;
22007;SDS011;11168;56.976;24.168;2022-09-11T06:48:40;6.28;;;2.25;;
22007;SDS011;11168;56.976;24.168;2022-09-11T06:51:09;3.20;;;2.10;;
22007;SDS011;11168;56.976;24.168;2022-09-11T06:53:37;4.85;;;2.17;;
22007;SDS011;11168;56.976;24.168;2022-09-11T06:56:04;5.78;;;2.17;;
22007;SDS011;11168;56.976;24.168;2022-09-11T06:58:35;5.53;;;2.40;;
22007;SDS011;11168;56.976;24.168;2022-09-11T07:01:03;4.90;;;2.10;;
22007;SDS011;11168;56.976;24.168;2022-09-11T07:03:31;5.82;;;2.25;;
22007;SDS011;11168;56.976;24.168;2022-09-11T07:05:58;2.92;;;1.85;;
22007;SDS011;11168;56.976;24.168;2022-09-11T07:08:26;7.78;;;2.20;;
22007;SDS011;11168;56.976;24.168;2022-09-11T07:10:57;3.50;;;2.13;;
22007;SDS011;11168;56.976;24.168;2022-09-11T07:13:29;4.57;;;2.10;;
22007;SDS011;11168;56.976;24.168;2022-09-11T07:16:05;5.90;;;2.00;;
22007;SDS011;11168;56.976;24.168;2022-09-11T07:18:36;3.17;;;1.85;;
22007;SDS011;11168;56.976;24.168;2022-09-11T07:21:08;3.60;;;2.15;;
22007;SDS011;11168;56.976;24.168;2022-09-11T07:23:36;5.50;;;1.80;;
22007;SDS011;11168;56.976;24.168;2022-09-11T07:26:06;3.63;;;1.90;;
22007;SDS011;11168;56.976;24.168;2022-09-11T07:28:34;4.07;;;1.73;;
22007;SDS011;11168;56.976;24.168;2022-09-11T07:31:07;3.92;;;1.85;;
22007;SDS011;11168;56.976;24.168;2022-09-11T07:33:36;3.53;;;1.83;;
22007;SDS011;11168;56.976;24.168;2022-09-11T07:36:10;5.25;;;2.42;;
22007;SDS011;11168;56.976;24.168;2022-09-11T07:38:39;5.25;;;1.88;;
22007;SDS011;11168;56.976;24.168;2022-09-11T07:41:07;4.80;;;1.70;;
22007;SDS011;11168;56.976;24.168;2022-09-11T07:43:35;3.92;;;1.95;;
22007;SDS011;11168;56.976;24.168;2022-09-11T07:46:02;8.10;;;1.67;;
22007;SDS011;11168;56.976;24.168;2022-09-11T07:48:30;6.18;;;1.90;;
22007;SDS011;11168;56.976;24.168;2022-09-11T07:51:01;2.75;;;1.83;;
22007;SDS011;11168;56.976;24.168;2022-09-11T07:56:00;4.32;;;1.77;;
22007;SDS011;11168;56.976;24.168;2022-09-11T07:58:34;5.28;;;1.90;;
22007;SDS011;11168;56.976;24.168;2022-09-11T08:01:06;5.45;;;2.25;;
22007;SDS011;11168;56.976;24.168;2022-09-11T08:03:34;3.88;;;1.80;;
22007;SDS011;11168;56.976;24.168;2022-09-11T08:06:04;3.88;;;1.40;;
22007;SDS011;11168;56.976;24.168;2022-09-11T08:08:33;3.95;;;1.67;;
22007;SDS011;11168;56.976;24.168;2022-09-11T08:11:01;5.65;;;1.83;;
22007;SDS011;11168;56.976;24.168;2022-09-11T08:13:29;3.00;;;1.70;;
22007;SDS011;11168;56.976;24.168;2022-09-11T08:15:56;6.80;;;1.80;;
22007;SDS011;11168;56.976;24.168;2022-09-11T08:18:23;5.45;;;1.85;;
22007;SDS011;11168;56.976;24.168;2022-09-11T08:20:51;4.80;;;1.88;;
22007;SDS011;11168;56.976;24.168;2022-09-11T08:23:18;6.50;;;2.17;;
22007;SDS011;11168;56.976;24.168;2022-09-11T08:25:46;3.15;;;2.17;;
22007;SDS011;11168;56.976;24.168;2022-09-11T08:28:13;4.75;;;1.88;;
22007;SDS011;11168;56.976;24.168;2022-09-11T08:30:41;4.22;;;1.75;;
22007;SDS011;11168;56.976;24.168;2022-09-11T08:33:08;2.75;;;1.63;;
22007;SDS011;11168;56.976;24.168;2022-09-11T08:35:37;4.50;;;1.90;;
22007;SDS011;11168;56.976;24.168;2022-09-11T08:38:05;2.60;;;1.60;;
22007;SDS011;11168;56.976;24.168;2022-09-11T08:40:34;4.90;;;1.50;;
22007;SDS011;11168;56.976;24.168;2022-09-11T08:43:04;9.02;;;2.13;;
22007;SDS011;11168;56.976;24.168;2022-09-11T08:45:34;3.95;;;1.50;;
22007;SDS011;11168;56.976;24.168;2022-09-11T08:48:03;5.60;;;1.48;;
22007;SDS011;11168;56.976;24.168;2022-09-11T08:50:39;5.70;;;2.07;;
22007;SDS011;11168;56.976;24.168;2022-09-11T08:53:16;4.95;;;1.45;;
22007;SDS011;11168;56.976;24.168;2022-09-11T09:01:02;4.45;;;1.70;;
22007;SDS011;11168;56.976;24.168;2022-09-11T09:09:02;4.05;;;1.88;;
22007;SDS011;11168;56.976;24.168;2022-09-11T09:11:43;6.18;;;1.73;;
22007;SDS011;11168;56.976;24.168;2022-09-11T09:22:09;7.53;;;1.65;;
22007;SDS011;11168;56.976;24.168;2022-09-11T09:24:49;5.25;;;1.52;;
22007;SDS011;11168;56.976;24.168;2022-09-11T09:27:26;6.18;;;1.80;;
22007;SDS011;11168;56.976;24.168;2022-09-11T09:29:57;6.00;;;1.92;;
22007;SDS011;11168;56.976;24.168;2022-09-11T09:32:29;2.40;;;1.50;;
22007;SDS011;11168;56.976;24.168;2022-09-11T09:34:58;2.78;;;1.50;;
22007;SDS011;11168;56.976;24.168;2022-09-11T09:37:27;4.15;;;1.65;;
22007;SDS011;11168;56.976;24.168;2022-09-11T09:39:54;4.03;;;1.80;;
22007;SDS011;11168;56.976;24.168;2022-09-11T09:44:56;6.28;;;1.70;;
22007;SDS011;11168;56.976;24.168;2022-09-11T09:47:27;3.03;;;1.60;;
22007;SDS011;11168;56.976;24.168;2022-09-11T09:49:56;4.80;;;1.88;;
22007;SDS011;11168;56.976;24.168;2022-09-11T09:52:30;7.93;;;1.90;;
22007;SDS011;11168;56.976;24.168;2022-09-11T09:54:59;11.02;;;1.85;;
22007;SDS011;11168;56.976;24.168;2022-09-11T09:57:31;4.25;;;1.65;;
22007;SDS011;11168;56.976;24.168;2022-09-11T10:02:39;5.85;;;1.33;;
22007;SDS011;11168;56.976;24.168;2022-09-11T10:05:27;3.58;;;1.60;;
22007;SDS011;11168;56.976;24.168;2022-09-11T10:08:04;5.25;;;1.75;;
22007;SDS011;11168;56.976;24.168;2022-09-11T10:10:36;8.43;;;1.95;;
22007;SDS011;11168;56.976;24.168;2022-09-11T10:18:20;5.15;;;1.75;;
22007;SDS011;11168;56.976;24.168;2022-09-11T10:20:48;3.40;;;1.80;;
22007;SDS011;11168;56.976;24.168;2022-09-11T10:23:21;4.25;;;1.92;;
22007;SDS011;11168;56.976;24.168;2022-09-11T10:25:49;5.47;;;1.75;;
22007;SDS011;11168;56.976;24.168;2022-09-11T10:28:18;3.83;;;1.70;;
22007;SDS011;11168;56.976;24.168;2022-09-11T10:35:49;6.72;;;2.03;;
22007;SDS011;11168;56.976;24.168;2022-09-11T10:38:45;5.40;;;1.83;;
22007;SDS011;11168;56.976;24.168;2022-09-11T10:41:14;11.00;;;1.70;;
22007;SDS011;11168;56.976;24.168;2022-09-11T10:43:56;5.47;;;1.65;;
22007;SDS011;11168;56.976;24.168;2022-09-11T10:51:38;4.40;;;1.70;;
22007;SDS011;11168;56.976;24.168;2022-09-11T11:02:45;6.00;;;1.95;;
22007;SDS011;11168;56.976;24.168;2022-09-11T11:13:10;2.90;;;1.83;;
22007;SDS011;11168;56.976;24.168;2022-09-11T11:37:16;5.85;;;2.10;;
22007;SDS011;11168;56.976;24.168;2022-09-11T11:42:18;8.73;;;2.00;;
22007;SDS011;11168;56.976;24.168;2022-09-11T11:44:54;7.05;;;1.92;;
22007;SDS011;11168;56.976;24.168;2022-09-11T11:47:24;5.40;;;1.90;;
22007;SDS011;11168;56.976;24.168;2022-09-11T11:54:58;5.18;;;2.08;;
22007;SDS011;11168;56.976;24.168;2022-09-11T11:57:28;6.32;;;1.85;;
22007;SDS011;11168;56.976;24.168;2022-09-11T12:02:29;7.47;;;1.60;;
22007;SDS011;11168;56.976;24.168;2022-09-11T12:05:04;3.92;;;2.10;;
22007;SDS011;11168;56.976;24.168;2022-09-11T12:07:34;5.85;;;1.83;;
22007;SDS011;11168;56.976;24.168;2022-09-11T12:10:03;7.25;;;2.25;;
22007;SDS011;11168;56.976;24.168;2022-09-11T12:12:32;4.50;;;1.92;;
22007;SDS011;11168;56.976;24.168;2022-09-11T12:15:17;6.80;;;1.90;;
22007;SDS011;11168;56.976;24.168;2022-09-11T12:17:45;5.63;;;1.60;;
22007;SDS011;11168;56.976;24.168;2022-09-11T12:20:28;4.72;;;2.00;;
22007;SDS011;11168;56.976;24.168;2022-09-11T12:22:57;4.72;;;1.85;;
22007;SDS011;11168;56.976;24.168;2022-09-11T12:28:19;7.28;;;1.77;;
22007;SDS011;11168;56.976;24.168;2022-09-11T12:36:21;5.65;;;1.70;;
22007;SDS011;11168;56.976;24.168;2022-09-11T12:39:14;5.57;;;2.15;;
22007;SDS011;11168;56.976;24.168;2022-09-11T12:41:43;6.05;;;2.08;;
22007;SDS011;11168;56.976;24.168;2022-09-11T12:44:30;6.57;;;2.22;;
22007;SDS011;11168;56.976;24.168;2022-09-11T12:49:25;3.13;;;1.67;;
22007;SDS011;11168;56.976;24.168;2022-09-11T12:51:54;6.53;;;1.92;;
22007;SDS011;11168;56.976;24.168;2022-09-11T12:57:02;3.75;;;1.90;;
22007;SDS011;11168;56.976;24.168;2022-09-11T12:59:34;5.90;;;1.83;;
22007;SDS011;11168;56.976;24.168;2022-09-11T13:02:13;3.28;;;1.58;;
22007;SDS011;11168;56.976;24.168;2022-09-11T13:04:43;4.15;;;2.20;;
22007;SDS011;11168;56.976;24.168;2022-09-11T13:07:19;4.47;;;2.25;;
22007;SDS011;11168;56.976;24.168;2022-09-11T13:09:49;5.82;;;2.50;;
22007;SDS011;11168;56.976;24.168;2022-09-11T13:14:51;6.50;;;2.10;;
22007;SDS011;11168;56.976;24.168;2022-09-11T13:17:23;10.18;;;2.20;;
22007;SDS011;11168;56.976;24.168;2022-09-11T13:19:52;4.53;;;1.90;;
22007;SDS011;11168;56.976;24.168;2022-09-11T13:22:24;4.80;;;1.95;;
22007;SDS011;11168;56.976;24.168;2022-09-11T13:25:03;3.03;;;2.20;;
22007;SDS011;11168;56.976;24.168;2022-09-11T13:27:30;4.38;;;2.40;;
22007;SDS011;11168;56.976;24.168;2022-09-11T13:30:03;6.70;;;2.40;;
22007;SDS011;11168;56.976;24.168;2022-09-11T13:32:31;5.97;;;2.25;;
22007;SDS011;11168;56.976;24.168;2022-09-11T13:35:00;4.50;;;2.05;;
22007;SDS011;11168;56.976;24.168;2022-09-11T13:37:46;3.22;;;2.10;;
22007;SDS011;11168;56.976;24.168;2022-09-11T13:40:19;5.95;;;2.38;;
22007;SDS011;11168;56.976;24.168;2022-09-11T13:42:50;7.43;;;2.70;;
22007;SDS011;11168;56.976;24.168;2022-09-11T13:45:18;8.35;;;3.05;;
22007;SDS011;11168;56.976;24.168;2022-09-11T13:47:47;6.15;;;2.90;;
22007;SDS011;11168;56.976;24.168;2022-09-11T13:50:15;5.82;;;2.63;;
22007;SDS011;11168;56.976;24.168;2022-09-11T13:52:43;8.15;;;3.00;;
22007;SDS011;11168;56.976;24.168;2022-09-11T13:55:21;3.60;;;2.47;;
22007;SDS011;11168;56.976;24.168;2022-09-11T13:57:56;5.80;;;2.53;;
22007;SDS011;11168;56.976;24.168;2022-09-11T14:00:43;5.32;;;2.78;;
22007;SDS011;11168;56.976;24.168;2022-09-11T14:03:14;6.20;;;2.50;;
22007;SDS011;11168;56.976;24.168;2022-09-11T14:05:47;7.45;;;2.83;;
22007;SDS011;11168;56.976;24.168;2022-09-11T14:08:19;8.48;;;3.92;;
22007;SDS011;11168;56.976;24.168;2022-09-11T14:10:51;5.28;;;2.53;;
22007;SDS011;11168;56.976;24.168;2022-09-11T14:13:29;4.07;;;2.35;;
22007;SDS011;11168;56.976;24.168;2022-09-11T14:16:05;4.30;;;2.03;;
22007;SDS011;11168;56.976;24.168;2022-09-11T14:18:43;4.22;;;2.30;;
22007;SDS011;11168;56.976;24.168;2022-09-11T14:21:12;7.85;;;2.05;;
22007;SDS011;11168;56.976;24.168;2022-09-11T14:23:44;4.95;;;1.85;;
22007;SDS011;11168;56.976;24.168;2022-09-11T14:26:14;4.53;;;2.15;;
22007;SDS011;11168;56.976;24.168;2022-09-11T14:28:44;5.30;;;2.50;;
22007;SDS011;11168;56.976;24.168;2022-09-11T14:31:12;5.95;;;2.65;;
22007;SDS011;11168;56.976;24.168;2022-09-11T14:33:40;4.47;;;3.20;;
22007;SDS011;11168;56.976;24.168;2022-09-11T14:36:15;6.93;;;3.50;;
22007;SDS011;11168;56.976;24.168;2022-09-11T14:38:44;6.82;;;2.30;;
22007;SDS011;11168;56.976;24.168;2022-09-11T14:41:12;9.35;;;2.00;;
22007;SDS011;11168;56.976;24.168;2022-09-11T14:43:40;4.78;;;2.33;;
22007;SDS011;11168;56.976;24.168;2022-09-11T14:46:11;4.60;;;2.20;;
22007;SDS011;11168;56.976;24.168;2022-09-11T14:48:39;3.22;;;2.00;;
22007;SDS011;11168;56.976;24.168;2022-09-11T14:51:08;4.13;;;2.10;;
22007;SDS011;11168;56.976;24.168;2022-09-11T14:53:39;4.80;;;2.05;;
22007;SDS011;11168;56.976;24.168;2022-09-11T14:56:09;5.38;;;2.08;;
22007;SDS011;11168;56.976;24.168;2022-09-11T14:58:36;9.25;;;2.05;;
22007;SDS011;11168;56.976;24.168;2022-09-11T15:01:03;5.10;;;1.80;;
22007;SDS011;11168;56.976;24.168;2022-09-11T15:03:31;5.18;;;1.90;;
22007;SDS011;11168;56.976;24.168;2022-09-11T15:05:58;4.25;;;1.88;;
22007;SDS011;11168;56.976;24.168;2022-09-11T15:08:25;4.25;;;1.98;;
22007;SDS011;11168;56.976;24.168;2022-09-11T15:10:53;2.55;;;1.70;;
22007;SDS011;11168;56.976;24.168;2022-09-11T15:13:20;7.95;;;2.03;;
22007;SDS011;11168;56.976;24.168;2022-09-11T15:15:48;3.58;;;2.13;;
22007;SDS011;11168;56.976;24.168;2022-09-11T15:18:15;6.53;;;2.10;;
22007;SDS011;11168;56.976;24.168;2022-09-11T15:20:43;3.55;;;2.33;;
22007;SDS011;11168;56.976;24.168;2022-09-11T15:23:10;3.67;;;1.95;;
22007;SDS011;11168;56.976;24.168;2022-09-11T15:25:37;5.03;;;1.98;;
22007;SDS011;11168;56.976;24.168;2022-09-11T15:28:06;3.55;;;2.10;;
22007;SDS011;11168;56.976;24.168;2022-09-11T15:30:36;6.00;;;2.10;;
22007;SDS011;11168;56.976;24.168;2022-09-11T15:33:03;4.30;;;2.53;;
22007;SDS011;11168;56.976;24.168;2022-09-11T15:35:31;3.88;;;2.20;;
22007;SDS011;11168;56.976;24.168;2022-09-11T15:37:58;4.80;;;2.40;;
22007;SDS011;11168;56.976;24.168;2022-09-11T15:40:25;6.25;;;2.30;;
22007;SDS011;11168;56.976;24.168;2022-09-11T15:42:54;4.88;;;2.40;;
22007;SDS011;11168;56.976;24.168;2022-09-11T15:45:22;4.30;;;2.60;;
22007;SDS011;11168;56.976;24.168;2022-09-11T15:47:49;3.33;;;2.50;;
22007;SDS011;11168;56.976;24.168;2022-09-11T15:50:16;3.67;;;2.40;;
22007;SDS011;11168;56.976;24.168;2022-09-11T15:52:49;4.93;;;2.67;;
22007;SDS011;11168;56.976;24.168;2022-09-11T15:55:17;7.05;;;3.17;;
22007;SDS011;11168;56.976;24.168;2022-09-11T15:57:44;4.18;;;2.70;;
22007;SDS011;11168;56.976;24.168;2022-09-11T16:00:11;4.25;;;2.97;;
22007;SDS011;11168;56.976;24.168;2022-09-11T16:02:39;5.10;;;2.90;;
22007;SDS011;11168;56.976;24.168;2022-09-11T16:05:07;2.72;;;2.33;;
22007;SDS011;11168;56.976;24.168;2022-09-11T16:07:34;5.90;;;3.10;;
22007;SDS011;11168;56.976;24.168;2022-09-11T16:10:01;6.53;;;3.22;;
22007;SDS011;11168;56.976;24.168;2022-09-11T16:12:29;5.32;;;2.78;;
22007;SDS011;11168;56.976;24.168;2022-09-11T16:14:56;4.55;;;3.10;;
22007;SDS011;11168;56.976;24.168;2022-09-11T16:17:23;4.30;;;2.42;;
22007;SDS011;11168;56.976;24.168;2022-09-11T16:19:56;4.03;;;2.95;;
22007;SDS011;11168;56.976;24.168;2022-09-11T16:22:24;5.90;;;2.85;;
22007;SDS011;11168;56.976;24.168;2022-09-11T16:24:51;4.78;;;3.10;;
22007;SDS011;11168;56.976;24.168;2022-09-11T16:27:19;4.40;;;3.00;;
22007;SDS011;11168;56.976;24.168;2022-09-11T16:29:47;6.30;;;3.35;;
22007;SDS011;11168;56.976;24.168;2022-09-11T16:32:35;4.78;;;3.40;;
22007;SDS011;11168;56.976;24.168;2022-09-11T16:35:05;7.97;;;3.03;;
22007;SDS011;11168;56.976;24.168;2022-09-11T16:37:39;6.18;;;3.60;;
22007;SDS011;11168;56.976;24.168;2022-09-11T16:40:06;6.10;;;3.05;;
22007;SDS011;11168;56.976;24.168;2022-09-11T16:42:34;5.32;;;2.90;;
22007;SDS011;11168;56.976;24.168;2022-09-11T16:45:02;4.75;;;3.17;;
22007;SDS011;11168;56.976;24.168;2022-09-11T16:47:29;7.28;;;3.13;;
22007;SDS011;11168;56.976;24.168;2022-09-11T16:49:57;4.00;;;3.22;;
22007;SDS011;11168;56.976;24.168;2022-09-11T16:52:33;5.40;;;3.13;;
22007;SDS011;11168;56.976;24.168;2022-09-11T16:55:01;7.80;;;3.03;;
22007;SDS011;11168;56.976;24.168;2022-09-11T16:57:29;6.38;;;3.50;;
22007;SDS011;11168;56.976;24.168;2022-09-11T16:59:56;6.75;;;3.75;;
22007;SDS011;11168;56.976;24.168;2022-09-11T17:02:23;6.78;;;3.75;;
22007;SDS011;11168;56.976;24.168;2022-09-11T17:04:51;6.05;;;3.28;;
22007;SDS011;11168;56.976;24.168;2022-09-11T17:07:18;6.20;;;3.17;;
22007;SDS011;11168;56.976;24.168;2022-09-11T17:09:47;4.70;;;3.33;;
22007;SDS011;11168;56.976;24.168;2022-09-11T17:12:14;4.40;;;2.83;;
22007;SDS011;11168;56.976;24.168;2022-09-11T17:14:44;4.18;;;2.95;;
22007;SDS011;11168;56.976;24.168;2022-09-11T17:17:12;10.85;;;3.55;;